Auxier, Kentucky
Current Conditions -  °F | °C
As of 11:35 AM on Friday 31 Oct 2014 (Local Time) from KSJS Reporting Station
Drizzle Drizzle  
Wind Chill: 43°   Ceiling: 4700
Heat Index: 43°   Visibility: 10mi
Dew Point: 40°   Wind: 3mph
Humidity: 89%   Direction: 240°WSW
Pressure: 29.96"   Gusts: NA
Location:  37.74°N, 82.76°W
Report Text: KSJS 311535Z AUTO 24003KT 10SM -DZ SCT035 SCT040 OVC047 06/05 A2996 RMK AO2 T00630046
Loading
Personal Weather Stations






























Interactive Weather Map
Tropical Storm Tracking
New forecast layout! Learn more

10-Day Weather Forecast

Advertisements
Track Severe Weather on mobile